createdAt,value
2018-12-02T00:01:37.366Z,11.88
2018-12-02T00:04:08.151Z,11.84
2018-12-02T00:06:38.891Z,11.84
2018-12-02T00:09:09.567Z,11.88
2018-12-02T00:11:40.316Z,11.96
2018-12-02T00:14:10.994Z,11.92
2018-12-02T00:16:42.719Z,11.92
2018-12-02T00:19:13.399Z,11.82
2018-12-02T00:21:44.035Z,11.78
2018-12-02T00:24:14.777Z,11.82
2018-12-02T00:26:45.498Z,11.84
2018-12-02T00:29:16.374Z,11.82
2018-12-02T00:31:47.767Z,11.87
2018-12-02T00:34:18.679Z,11.79
2018-12-02T00:36:49.720Z,11.78
2018-12-02T00:39:21.488Z,11.82
2018-12-02T00:41:52.539Z,11.79
2018-12-02T00:44:23.765Z,11.83
2018-12-02T00:46:57.604Z,11.83
2018-12-02T00:49:28.520Z,11.79
2018-12-02T00:51:59.436Z,11.73
2018-12-02T00:54:30.283Z,11.69
2018-12-02T00:57:05.391Z,11.67
2018-12-02T00:59:36.399Z,11.65
2018-12-02T01:02:11.211Z,11.62
2018-12-02T01:04:42.064Z,11.51
2018-12-02T01:07:13.847Z,11.55
2018-12-02T01:09:45.159Z,11.63
2018-12-02T01:12:21.312Z,11.64
2018-12-02T01:14:54.344Z,11.63
2018-12-02T01:17:27.032Z,11.66
2018-12-02T01:19:59.196Z,11.66
2018-12-02T01:22:30.283Z,11.62
2018-12-02T01:25:01.786Z,11.55
2018-12-02T01:27:32.876Z,11.55
2018-12-02T01:30:07.894Z,11.58
2018-12-02T01:32:38.851Z,11.52
2018-12-02T01:35:11.635Z,11.60
2018-12-02T01:37:46.165Z,11.63
2018-12-02T01:40:19.757Z,11.68
2018-12-02T01:42:53.058Z,11.68
2018-12-02T01:45:26.228Z,11.62
2018-12-02T01:47:59.135Z,11.55
2018-12-02T01:50:30.109Z,11.52
2018-12-02T01:53:01.368Z,11.53
2018-12-02T01:55:34.033Z,11.53
2018-12-02T01:58:05.914Z,11.56
2018-12-02T02:00:36.865Z,11.64
2018-12-02T02:03:09.674Z,11.67
2018-12-02T02:05:42.431Z,11.64
2018-12-02T02:08:13.346Z,11.66
2018-12-02T02:10:44.367Z,11.67
2018-12-02T02:13:15.760Z,11.72
2018-12-02T02:15:46.623Z,11.70
2018-12-02T02:18:17.384Z,11.68
2018-12-02T02:20:49.060Z,11.63
2018-12-02T02:23:19.806Z,11.55
2018-12-02T02:25:51.446Z,11.57
2018-12-02T02:28:22.759Z,11.66
2018-12-02T02:30:54.273Z,11.67
2018-12-02T02:33:25.557Z,11.68
2018-12-02T02:35:56.400Z,11.72
2018-12-02T02:38:27.150Z,11.77
2018-12-02T02:40:57.945Z,11.69
2018-12-02T02:43:28.706Z,11.60
2018-12-02T02:45:59.487Z,11.51
2018-12-02T02:48:30.708Z,11.49
2018-12-02T02:51:05.112Z,11.51
2018-12-02T02:53:35.769Z,11.55
2018-12-02T02:56:07.168Z,11.48
2018-12-02T02:58:37.879Z,11.55
2018-12-02T03:01:08.994Z,11.66
2018-12-02T03:03:39.749Z,11.54
2018-12-02T03:06:10.497Z,11.49
2018-12-02T03:08:41.158Z,11.55
2018-12-02T03:11:11.943Z,11.67
2018-12-02T03:13:43.168Z,11.60
2018-12-02T03:16:13.903Z,11.52
2018-12-02T03:18:44.675Z,11.52
2018-12-02T03:21:15.392Z,11.55
2018-12-02T03:23:46.094Z,11.59
2018-12-02T03:26:17.115Z,11.66
2018-12-02T03:28:48.084Z,11.64
2018-12-02T03:31:19.889Z,11.65
2018-12-02T03:33:51.232Z,11.69
2018-12-02T03:36:21.919Z,11.72
2018-12-02T03:38:52.621Z,11.67
2018-12-02T03:41:23.349Z,11.74
2018-12-02T03:43:54.057Z,11.75
2018-12-02T03:46:24.796Z,11.79
2018-12-02T03:48:55.512Z,11.78
2018-12-02T03:51:27.509Z,11.72
2018-12-02T03:53:58.146Z,11.73
2018-12-02T03:56:28.897Z,11.77
2018-12-02T03:59:00.473Z,11.70
2018-12-02T04:01:35.368Z,11.74
2018-12-02T04:04:06.246Z,11.67
2018-12-02T04:06:36.988Z,11.65
2018-12-02T04:09:09.965Z,11.70
2018-12-02T04:11:40.732Z,11.65
2018-12-02T04:14:11.465Z,11.61
2018-12-02T04:16:42.233Z,11.59
2018-12-02T04:19:12.991Z,11.58
2018-12-02T04:21:43.738Z,11.55
2018-12-02T04:24:14.425Z,11.56
2018-12-02T04:26:45.153Z,11.63
2018-12-02T04:29:15.806Z,11.64
2018-12-02T04:31:46.527Z,11.69
2018-12-02T04:34:17.508Z,11.69
2018-12-02T04:36:48.271Z,11.70
2018-12-02T04:39:19.003Z,11.62
2018-12-02T04:41:50.087Z,11.66
2018-12-02T04:44:20.825Z,11.69
2018-12-02T04:46:51.566Z,11.56
2018-12-02T04:49:22.339Z,11.51
2018-12-02T04:51:53.146Z,11.49
2018-12-02T04:54:23.912Z,11.54
2018-12-02T04:56:54.725Z,11.60
2018-12-02T04:59:25.425Z,11.67
2018-12-02T05:01:59.558Z,11.70
2018-12-02T05:04:30.262Z,11.74
2018-12-02T05:07:00.975Z,11.75
2018-12-02T05:09:31.730Z,11.82
2018-12-02T05:12:04.434Z,11.77
2018-12-02T05:14:35.140Z,11.89
2018-12-02T05:17:06.102Z,11.86
2018-12-02T05:19:36.751Z,11.87
2018-12-02T05:22:07.477Z,11.84
2018-12-02T05:24:38.157Z,11.98
2018-12-02T05:27:08.902Z,11.90
2018-12-02T05:29:39.628Z,11.90
2018-12-02T05:32:10.341Z,11.73
2018-12-02T05:34:40.993Z,11.69
2018-12-02T05:37:11.688Z,11.69
2018-12-02T05:39:42.459Z,11.71
2018-12-02T05:42:18.092Z,11.70
2018-12-02T05:44:48.814Z,11.71
2018-12-02T05:47:19.510Z,11.75
2018-12-02T05:49:50.231Z,11.83
2018-12-02T05:52:20.929Z,11.84
2018-12-02T05:54:51.631Z,11.82
2018-12-02T05:57:22.326Z,11.90
2018-12-02T05:59:53.045Z,11.83
2018-12-02T06:02:24.552Z,11.91
2018-12-02T06:04:55.266Z,11.79
2018-12-02T06:07:25.975Z,11.73
2018-12-02T06:09:56.682Z,11.71
2018-12-02T06:12:27.414Z,11.75
2018-12-02T06:14:58.157Z,11.71
2018-12-02T06:17:28.826Z,11.78
2018-12-02T06:20:04.514Z,11.72
2018-12-02T06:22:31.643Z,11.73
2018-12-02T06:25:03.557Z,11.69
2018-12-02T06:27:34.267Z,11.65
2018-12-02T06:30:09.721Z,11.69
2018-12-02T06:32:40.441Z,11.77
2018-12-02T06:35:13.685Z,11.79
2018-12-02T06:37:44.517Z,11.80
2018-12-02T06:40:19.222Z,11.82
2018-12-02T06:42:50.555Z,11.84
2018-12-02T06:45:21.433Z,11.74
2018-12-02T06:47:52.153Z,11.89
2018-12-02T06:50:24.848Z,11.78
2018-12-02T06:52:56.810Z,11.69
2018-12-02T06:56:35.489Z,11.64
2018-12-02T06:59:18.180Z,11.59
2018-12-02T07:04:08.565Z,11.57
2018-12-02T07:06:39.384Z,11.56
2018-12-02T07:09:10.145Z,11.52
2018-12-02T07:11:40.901Z,11.51
2018-12-02T07:14:11.576Z,11.51
2018-12-02T07:16:42.434Z,11.54
2018-12-02T07:19:20.847Z,11.54
2018-12-02T07:21:57.846Z,11.60
2018-12-02T07:24:32.751Z,11.55
2018-12-02T07:27:08.836Z,11.61
2018-12-02T07:29:40.127Z,11.57
2018-12-02T07:32:10.875Z,11.59
2018-12-02T07:35:05.334Z,11.58
2018-12-02T07:37:57.189Z,11.66
2018-12-02T07:40:37.150Z,11.65
2018-12-02T07:43:09.808Z,11.62
2018-12-02T07:45:40.593Z,11.61
2018-12-02T07:48:11.288Z,11.67
2018-12-02T07:50:42.069Z,11.63
2018-12-02T07:53:12.739Z,11.66
2018-12-02T07:55:43.457Z,11.67
2018-12-02T07:58:17.397Z,11.69
2018-12-02T08:00:48.121Z,11.73
2018-12-02T08:03:18.823Z,11.76
2018-12-02T08:05:49.892Z,11.78
2018-12-02T08:08:20.633Z,11.87
2018-12-02T08:10:51.969Z,11.85
2018-12-02T08:13:22.891Z,11.88
2018-12-02T08:15:53.674Z,11.96
2018-12-02T08:18:24.322Z,12.14
2018-12-02T08:20:55.057Z,12.15
2018-12-02T08:23:25.717Z,12.23
2018-12-02T08:25:56.522Z,12.32
2018-12-02T08:28:27.163Z,12.47
2018-12-02T08:30:57.888Z,12.63
2018-12-02T08:33:28.554Z,12.73
2018-12-02T08:35:59.390Z,12.56
2018-12-02T08:38:30.284Z,12.52
2018-12-02T08:41:01.137Z,12.68
2018-12-02T08:43:33.974Z,12.82
2018-12-02T08:46:05.162Z,12.95
2018-12-02T08:48:35.889Z,13.07
2018-12-02T08:51:06.735Z,13.09
2018-12-02T08:53:37.637Z,12.93
2018-12-02T08:56:08.469Z,13.06
2018-12-02T08:58:39.270Z,13.28
2018-12-02T09:01:10.614Z,13.25
2018-12-02T09:03:41.794Z,13.18
2018-12-02T09:06:14.202Z,13.18
2018-12-02T09:08:45.443Z,13.41
2018-12-02T09:11:16.381Z,13.68
2018-12-02T09:13:47.153Z,13.68
2018-12-02T09:16:18.559Z,13.78
2018-12-02T09:18:50.211Z,14.01
2018-12-02T09:21:21.018Z,13.91
2018-12-02T09:23:51.745Z,14.10
2018-12-02T09:26:22.452Z,14.32
2018-12-02T09:28:53.164Z,14.37
2018-12-02T09:31:23.897Z,14.57
2018-12-02T09:33:54.587Z,14.78
2018-12-02T09:36:25.354Z,15.05
2018-12-02T09:38:56.616Z,15.31
2018-12-02T09:41:27.270Z,15.32
2018-12-02T09:43:58.014Z,15.74
2018-12-02T09:46:28.730Z,16.26
2018-12-02T09:48:59.390Z,16.18
2018-12-02T09:51:33.693Z,16.58
2018-12-02T09:54:06.374Z,17.13
2018-12-02T09:56:38.381Z,18.52
2018-12-02T09:59:09.143Z,19.61
2018-12-02T10:01:41.998Z,19.73
2018-12-02T10:04:12.731Z,20.04
2018-12-02T10:06:44.383Z,19.97
2018-12-02T10:09:15.114Z,19.66
2018-12-02T10:11:46.663Z,19.26
2018-12-02T10:14:17.357Z,18.66
2018-12-02T10:16:48.021Z,18.11
2018-12-02T10:19:18.745Z,18.23
2018-12-02T10:21:49.477Z,18.06
2018-12-02T10:24:21.495Z,18.00
2018-12-02T10:26:52.186Z,17.66
2018-12-02T10:29:22.899Z,17.51
2018-12-02T10:31:53.634Z,17.46
2018-12-02T10:34:24.349Z,17.61
2018-12-02T10:36:55.817Z,17.43
2018-12-02T10:39:26.627Z,17.26
2018-12-02T10:41:57.329Z,17.37
2018-12-02T10:44:29.191Z,17.60
2018-12-02T10:46:59.862Z,17.29
2018-12-02T10:49:30.539Z,16.86
2018-12-02T10:52:05.326Z,16.74
2018-12-02T10:54:36.049Z,16.50
2018-12-02T10:57:06.966Z,16.78
2018-12-02T10:59:37.671Z,16.78
2018-12-02T11:02:16.592Z,17.04
2018-12-02T11:04:48.059Z,17.23
2018-12-02T11:07:18.742Z,17.31
2018-12-02T11:09:49.479Z,17.37
2018-12-02T11:12:20.210Z,17.84
2018-12-02T11:14:51.897Z,17.78
2018-12-02T11:17:22.628Z,17.37
2018-12-02T11:19:53.395Z,17.16
2018-12-02T11:22:24.639Z,17.47
2018-12-02T11:24:55.439Z,17.05
2018-12-02T11:27:26.173Z,17.09
2018-12-02T11:29:56.927Z,17.07
2018-12-02T11:32:27.657Z,17.09
2018-12-02T11:34:58.368Z,16.87
2018-12-02T11:37:29.569Z,16.66
2018-12-02T11:40:00.483Z,16.76
2018-12-02T11:42:31.241Z,16.75
2018-12-02T11:45:02.537Z,17.17
2018-12-02T11:47:37.274Z,17.30
2018-12-02T11:50:13.425Z,17.94
2018-12-02T11:52:44.215Z,18.04
2018-12-02T11:55:19.830Z,18.30
2018-12-02T11:57:51.164Z,18.12
2018-12-02T12:00:23.954Z,18.65
2018-12-02T12:02:55.375Z,18.84
2018-12-02T12:05:39.405Z,18.46
2018-12-02T12:08:16.854Z,17.92
2018-12-02T12:10:47.813Z,17.41
2018-12-02T12:13:19.768Z,17.56
2018-12-02T12:15:50.948Z,17.66
2018-12-02T12:18:21.785Z,17.52
2018-12-02T12:20:53.229Z,17.30
2018-12-02T12:23:24.371Z,17.00
2018-12-02T12:28:37.657Z,16.85
2018-12-02T12:31:08.339Z,16.88
2018-12-02T12:33:39.185Z,17.08
2018-12-02T12:36:09.925Z,17.19
2018-12-02T12:38:40.730Z,17.47
2018-12-02T12:41:11.894Z,17.43
2018-12-02T12:43:43.170Z,17.27
2018-12-02T12:46:14.186Z,17.27
2018-12-02T12:48:44.994Z,17.33
2018-12-02T12:51:15.674Z,17.68
2018-12-02T12:53:46.358Z,17.74
2018-12-02T12:56:18.351Z,17.71
2018-12-02T12:58:49.019Z,17.63
2018-12-02T13:01:20.462Z,17.92
2018-12-02T13:03:52.626Z,17.47
2018-12-02T13:06:23.367Z,17.34
2018-12-02T13:08:54.432Z,17.38
2018-12-02T13:14:41.071Z,17.30
2018-12-02T13:17:14.144Z,17.43
2018-12-02T13:19:53.785Z,17.22
2018-12-02T13:22:24.515Z,17.23
2018-12-02T13:24:55.504Z,17.06
2018-12-02T13:27:31.607Z,16.96
2018-12-02T13:30:18.341Z,17.09
2018-12-02T13:32:53.861Z,17.08
2018-12-02T13:35:28.186Z,17.09
2018-12-02T13:37:59.184Z,17.12
2018-12-02T13:40:29.867Z,17.11
2018-12-02T13:43:03.815Z,17.19
2018-12-02T13:45:35.015Z,17.29
2018-12-02T13:48:08.446Z,17.25
2018-12-02T13:50:39.615Z,16.88
2018-12-02T13:53:11.524Z,16.77
2018-12-02T13:55:42.581Z,16.80
2018-12-02T13:58:13.638Z,16.77
2018-12-02T14:00:44.583Z,16.86
2018-12-02T14:03:15.878Z,16.78
2018-12-02T14:05:47.703Z,16.70
2018-12-02T14:08:18.377Z,16.66
2018-12-02T14:11:29.090Z,16.76
2018-12-02T14:14:18.070Z,16.68
2018-12-02T14:17:09.194Z,16.65
2018-12-02T14:19:49.380Z,16.74
2018-12-02T14:22:20.352Z,16.65
2018-12-02T14:24:51.516Z,16.70
2018-12-02T14:27:23.454Z,16.60
2018-12-02T14:29:55.501Z,16.61
2018-12-02T14:32:27.123Z,16.53
2018-12-02T14:34:57.810Z,16.52
2018-12-02T14:37:28.461Z,16.49
2018-12-02T14:39:59.245Z,16.21
2018-12-02T14:42:38.669Z,16.11
2018-12-02T14:52:26.812Z,16.32
2018-12-02T14:58:23.562Z,16.47
2018-12-02T15:00:54.254Z,16.52
2018-12-02T15:03:24.931Z,16.49
2018-12-02T15:06:00.513Z,16.46
2018-12-02T15:08:34.979Z,16.33
2018-12-02T15:11:06.394Z,16.32
2018-12-02T15:13:37.094Z,16.42
2018-12-02T15:16:08.025Z,16.36
2018-12-02T15:18:38.794Z,16.46
2018-12-02T15:21:10.071Z,16.45
2018-12-02T15:23:41.438Z,16.49
2018-12-02T15:26:12.086Z,16.54
2018-12-02T15:28:42.844Z,16.42
2018-12-02T15:31:13.477Z,16.39
2018-12-02T15:33:50.331Z,16.45
2018-12-02T15:36:20.971Z,16.30
2018-12-02T15:38:51.659Z,16.21
2018-12-02T15:41:22.378Z,16.21
2018-12-02T15:43:53.132Z,16.19
2018-12-02T15:46:23.934Z,16.19
2018-12-02T15:48:54.698Z,16.15
2018-12-02T15:51:25.364Z,16.15
2018-12-02T15:53:56.074Z,16.03
2018-12-02T15:56:26.996Z,16.10
2018-12-02T15:58:57.665Z,15.93
2018-12-02T16:01:28.366Z,15.91
2018-12-02T16:03:59.073Z,15.82
2018-12-02T16:06:29.727Z,15.79
2018-12-02T16:09:00.450Z,15.79
2018-12-02T16:11:32.678Z,15.81
2018-12-02T16:14:04.535Z,15.79
2018-12-02T16:16:35.199Z,15.72
2018-12-02T16:19:06.252Z,15.70
2018-12-02T16:21:36.932Z,15.66
2018-12-02T16:24:07.634Z,15.65
2018-12-02T16:26:38.325Z,15.68
2018-12-02T16:29:08.974Z,15.56
2018-12-02T16:31:39.668Z,15.63
2018-12-02T16:34:10.407Z,15.59
2018-12-02T16:36:41.058Z,15.63
2018-12-02T16:39:11.462Z,15.52
2018-12-02T16:41:50.903Z,15.47
2018-12-02T16:44:21.602Z,15.52
2018-12-02T16:46:52.425Z,15.42
2018-12-02T16:49:23.110Z,15.36
2018-12-02T16:51:53.802Z,15.36
2018-12-02T16:54:25.525Z,15.31
2018-12-02T16:56:57.055Z,15.33
2018-12-02T16:59:32.278Z,15.30
2018-12-02T17:02:09.175Z,15.22
2018-12-02T17:04:40.257Z,15.21
2018-12-02T17:07:10.994Z,15.23
2018-12-02T17:09:42.204Z,15.24
2018-12-02T17:12:12.898Z,15.20
2018-12-02T17:14:43.526Z,15.17
2018-12-02T17:17:14.233Z,15.17
2018-12-02T17:19:45.043Z,15.17
2018-12-02T17:22:15.728Z,15.11
2018-12-02T17:24:46.462Z,15.12
2018-12-02T17:27:19.270Z,15.12
2018-12-02T17:29:50.050Z,15.06
2018-12-02T17:35:07.262Z,15.08
2018-12-02T17:37:38.013Z,15.01
2018-12-02T17:40:13.764Z,14.92
2018-12-02T17:42:44.521Z,14.92
2018-12-02T17:45:15.320Z,14.93
2018-12-02T17:47:45.969Z,14.93
2018-12-02T17:50:18.732Z,14.95
2018-12-02T17:52:50.224Z,14.94
2018-12-02T17:55:20.988Z,14.89
2018-12-02T17:57:51.756Z,14.89
2018-12-02T18:00:23.966Z,14.86
2018-12-02T18:02:55.922Z,14.87
2018-12-02T18:05:30.352Z,14.91
2018-12-02T18:08:01.083Z,14.87
2018-12-02T18:10:33.639Z,14.84
2018-12-02T18:13:05.402Z,14.86
2018-12-02T18:15:36.046Z,14.83
2018-12-02T18:18:09.853Z,14.86
2018-12-02T18:20:40.532Z,14.88
2018-12-02T18:23:11.260Z,14.84
2018-12-02T18:25:41.912Z,14.79
2018-12-02T18:28:12.613Z,14.80
2018-12-02T18:30:43.384Z,14.84
2018-12-02T18:33:15.580Z,14.77
2018-12-02T18:35:49.059Z,14.78
2018-12-02T18:38:21.298Z,14.79
2018-12-02T18:41:00.899Z,14.80
2018-12-02T18:43:41.248Z,14.77
2018-12-02T18:46:13.096Z,14.84
2018-12-02T18:48:43.758Z,14.89
2018-12-02T18:51:14.483Z,14.91
2018-12-02T18:53:45.266Z,14.91
2018-12-02T18:56:16.720Z,14.95
2018-12-02T18:58:47.486Z,14.91
2018-12-02T19:01:18.587Z,14.93
2018-12-02T19:03:50.046Z,14.93
2018-12-02T19:06:28.232Z,14.92
2018-12-02T19:08:54.940Z,14.97
2018-12-02T19:11:26.411Z,14.97
2018-12-02T19:13:57.147Z,14.98
2018-12-02T19:16:27.803Z,14.88
2018-12-02T19:18:58.485Z,14.90
2018-12-02T19:21:30.528Z,14.83
2018-12-02T19:24:04.202Z,14.82
2018-12-02T19:26:34.850Z,14.80
2018-12-02T19:29:07.482Z,14.92
2018-12-02T19:31:38.215Z,14.93
2018-12-02T19:34:09.283Z,14.88
2018-12-02T19:36:48.125Z,14.84
2018-12-02T19:39:18.969Z,14.85
2018-12-02T19:41:50.335Z,14.81
2018-12-02T19:44:21.724Z,14.80
2018-12-02T19:46:52.455Z,14.79
2018-12-02T19:49:23.107Z,14.80
2018-12-02T19:51:53.904Z,14.79
2018-12-02T19:54:24.700Z,14.78
2018-12-02T19:56:55.529Z,14.77
2018-12-02T19:59:26.225Z,14.73
2018-12-02T20:01:56.845Z,14.77
2018-12-02T20:04:27.747Z,14.77
2018-12-02T20:06:58.477Z,14.77
2018-12-02T20:09:29.601Z,14.78
2018-12-02T20:12:00.320Z,14.73
2018-12-02T20:14:33.186Z,14.74
2018-12-02T20:17:04.595Z,14.74
2018-12-02T20:19:40.683Z,14.72
2018-12-02T20:22:12.006Z,14.71
2018-12-02T20:24:42.665Z,14.86
2018-12-02T20:27:13.351Z,14.82
2018-12-02T20:29:44.086Z,14.76
2018-12-02T20:32:14.748Z,14.77
2018-12-02T20:34:45.470Z,14.71
2018-12-02T20:37:16.698Z,14.71
2018-12-02T20:39:47.417Z,14.77
2018-12-02T20:42:18.566Z,14.75
2018-12-02T20:44:52.756Z,14.70
2018-12-02T20:47:20.420Z,14.79
2018-12-02T20:49:52.328Z,14.81
2018-12-02T20:52:23.092Z,14.71
2018-12-02T20:54:54.042Z,14.81
2018-12-02T20:57:24.838Z,14.77
2018-12-02T20:59:56.623Z,14.85
2018-12-02T21:02:27.316Z,14.88
2018-12-02T21:04:58.003Z,14.80
2018-12-02T21:07:28.697Z,14.77
2018-12-02T21:10:05.520Z,14.78
2018-12-02T21:12:36.218Z,14.77
2018-12-02T21:15:14.943Z,14.87
2018-12-02T21:17:45.836Z,14.83
2018-12-02T21:20:16.505Z,14.82
2018-12-02T21:22:47.230Z,14.82
2018-12-02T21:25:20.651Z,14.83
2018-12-02T21:27:51.400Z,14.81
2018-12-02T21:30:24.420Z,14.82
2018-12-02T21:32:55.179Z,14.80
2018-12-02T21:35:25.842Z,14.72
2018-12-02T21:37:57.912Z,14.74
2018-12-02T21:40:28.612Z,14.71
2018-12-02T21:43:00.926Z,14.78
2018-12-02T21:45:35.575Z,14.70
2018-12-02T21:48:10.658Z,14.72
2018-12-02T21:50:41.348Z,14.76
2018-12-02T21:53:12.773Z,14.76
2018-12-02T21:55:52.500Z,14.72
2018-12-02T21:58:25.538Z,14.44
2018-12-02T22:01:03.247Z,14.70
2018-12-02T22:03:34.127Z,14.67
2018-12-02T22:06:06.348Z,14.68
2018-12-02T22:08:37.345Z,14.70
2018-12-02T22:11:09.001Z,14.63
2018-12-02T22:13:43.412Z,14.61
2018-12-02T22:16:12.101Z,14.68
2018-12-02T22:18:42.739Z,14.71
2018-12-02T22:21:14.262Z,14.67
2018-12-02T22:23:45.094Z,14.69
2018-12-02T22:26:15.781Z,14.64
2018-12-02T22:28:46.616Z,14.68
2018-12-02T22:31:17.493Z,14.69
2018-12-02T22:33:48.981Z,14.67
2018-12-02T22:36:19.735Z,14.68
2018-12-02T22:38:50.619Z,14.71
2018-12-02T22:41:21.407Z,14.67
2018-12-02T22:43:53.582Z,14.65
2018-12-02T22:46:24.350Z,14.61
2018-12-02T22:48:54.993Z,14.64
2018-12-02T22:51:25.942Z,14.68
2018-12-02T22:53:57.689Z,14.66
2018-12-02T22:56:28.984Z,14.62
2018-12-02T22:59:00.902Z,14.69
2018-12-02T23:01:38.809Z,14.66
2018-12-02T23:04:09.603Z,14.65
2018-12-02T23:06:40.362Z,14.72
2018-12-02T23:09:11.209Z,14.71
2018-12-02T23:11:42.686Z,14.71
2018-12-02T23:14:13.777Z,14.69
2018-12-02T23:16:54.286Z,14.72
2018-12-02T23:19:26.917Z,14.70
2018-12-02T23:22:06.350Z,14.74
2018-12-02T23:24:37.026Z,14.64
2018-12-02T23:27:07.922Z,14.62
2018-12-02T23:29:39.441Z,14.59
2018-12-02T23:32:10.200Z,14.61
2018-12-02T23:34:42.170Z,14.60
2018-12-02T23:37:20.427Z,14.62
2018-12-02T23:39:45.455Z,14.57
2018-12-02T23:42:16.963Z,14.54
2018-12-02T23:44:49.109Z,14.56
2018-12-02T23:47:19.755Z,14.61
2018-12-02T23:49:50.431Z,14.58
2018-12-02T23:52:23.135Z,14.56
2018-12-02T23:54:53.781Z,14.62
2018-12-02T23:57:24.549Z,14.57
2018-12-02T23:59:56.747Z,14.57
